Bookmark and Share
Track history (hours):
 

Cape Texel

Last reported at 2014-Apr-20 01:28 UTC. Time now 2014-Apr-20 08:57 UTC.
Position N 22°13' E 120°16'.

Length 228 m; draft 9.3 m.

Type: Ship (hazmat cat A). MMSI: 538090383.

NotesDate/timePositionNaut miles runAvg speedWind from/ knotsBaromVisibWave heightAir tempDewpointWater temp
2014-Apr-20 01:28N 22°13' E 120°16'1213.8
2014-Apr-20 00:33N 22°25' E 120°13'10 9.5
2014-Apr-19 23:33N 22°33' E 120°19'1 1.1
2014-Apr-19 22:33N 22°33' E 120°20'0 0.0
2014-Apr-19 00:32N 22°33' E 120°20'2 2.5
2014-Apr-18 23:33N 22°33' E 120°18'3 2.6
2014-Apr-18 22:29N 22°31' E 120°16'0 0.0
2014-Apr-18 21:29N 22°31' E 120°16'0 0.1
2014-Apr-18 20:28N 22°31' E 120°16'0 0.0
2014-Apr-18 19:22N 22°31' E 120°16'0 0.0
2014-Apr-18 18:23N 22°31' E 120°16'0 0.1
2014-Apr-18 17:22N 22°31' E 120°16'0 0.1
2014-Apr-18 16:29N 22°31' E 120°16'0 0.0
2014-Apr-18 15:23N 22°31' E 120°16'0 0.0
2014-Apr-18 14:28N 22°31' E 120°16'0 0.0
2014-Apr-18 13:28N 22°31' E 120°16'0 0.0
2014-Apr-18 12:22N 22°31' E 120°16'0 0.0
2014-Apr-18 11:28N 22°31' E 120°16'0 0.0
2014-Apr-18 10:29N 22°31' E 120°16'0 0.1
2014-Apr-18 09:28N 22°31' E 120°16'0 0.0
2014-Apr-18 08:28N 22°31' E 120°16'0 0.1
2014-Apr-18 07:22N 22°31' E 120°16'0 0.1
2014-Apr-18 06:28N 22°31' E 120°16'0 0.0
2014-Apr-18 05:29N 22°31' E 120°16'0 0.0
2014-Apr-18 04:29N 22°31' E 120°16'0 0.0
2014-Apr-18 03:22N 22°31' E 120°16'0 0.1
2014-Apr-18 02:28N 22°31' E 120°16'0 0.2
2014-Apr-18 01:28N 22°31' E 120°16'0 0.1
2014-Apr-18 00:28N 22°31' E 120°16'0 0.0
2014-Apr-17 23:28N 22°31' E 120°16'0 0.0
2014-Apr-17 22:29N 22°31' E 120°16'0 0.0
2014-Apr-17 21:28N 22°31' E 120°16'0 0.0
2014-Apr-17 20:28N 22°31' E 120°16'0 0.0
2014-Apr-17 19:22N 22°31' E 120°16'0 0.1
2014-Apr-17 18:28N 22°31' E 120°16'0 0.1
2014-Apr-17 17:28N 22°31' E 120°16'0 0.1
2014-Apr-17 16:28N 22°31' E 120°16'0 0.1
2014-Apr-17 15:22N 22°31' E 120°16'0 0.1
2014-Apr-17 14:22N 22°31' E 120°16'0 0.0
2014-Apr-17 13:22N 22°31' E 120°16'0 0.2
2014-Apr-17 12:22N 22°31' E 120°16'0 0.1
2014-Apr-17 11:28N 22°31' E 120°16'0 0.0
2014-Apr-17 10:28N 22°31' E 120°16'0 0.0
2014-Apr-17 09:28N 22°31' E 120°16'0 0.1
2014-Apr-17 08:22N 22°31' E 120°16'0 0.2
2014-Apr-17 07:28N 22°31' E 120°16'0 0.1
2014-Apr-17 06:28N 22°31' E 120°16'0 0.0
2014-Apr-17 05:22N 22°31' E 120°16'0 0.0
2014-Apr-17 04:28N 22°31' E 120°16'0 0.0
2014-Apr-17 03:28N 22°31' E 120°16'0 0.0
2014-Apr-17 02:28N 22°31' E 120°16'0 0.0
2014-Apr-17 01:28N 22°31' E 120°16'0 0.1
2014-Apr-17 00:28N 22°31' E 120°16'0 0.1
2014-Apr-16 23:28N 22°31' E 120°16'0 0.0
2014-Apr-16 22:28N 22°31' E 120°16'0 0.0
2014-Apr-16 21:28N 22°31' E 120°16'0 0.1
2014-Apr-16 20:22N 22°31' E 120°16'0 0.1
2014-Apr-16 19:22N 22°31' E 120°16'0 0.0
2014-Apr-16 18:28N 22°31' E 120°16'0 0.1
2014-Apr-16 17:28N 22°31' E 120°16'0 0.1
2014-Apr-16 16:28N 22°31' E 120°16'0 0.1
2014-Apr-16 15:28N 22°31' E 120°16'0 0.0
2014-Apr-16 14:22N 22°31' E 120°16'0 0.1
2014-Apr-16 13:28N 22°31' E 120°16'0 0.0
2014-Apr-16 12:28N 22°31' E 120°16'0 0.1
2014-Apr-16 11:28N 22°31' E 120°16'0 0.1
2014-Apr-16 10:28N 22°31' E 120°16'2 1.7
2014-Apr-16 09:33N 22°32' E 120°15'1111.2
2014-Apr-16 08:33N 22°27' E 120°04'2 1.9
2014-Apr-16 07:33N 22°26' E 120°02'0 0.3
2014-Apr-16 06:33N 22°25' E 120°02'0 0.5
2014-Apr-16 05:33N 22°25' E 120°02'0 0.5
2014-Apr-16 04:33N 22°25' E 120°03'0 0.5
2014-Apr-16 03:33N 22°24' E 120°03'1 0.6
2014-Apr-16 02:33N 22°24' E 120°03'1 0.7
2014-Apr-16 01:34N 22°23' E 120°03'8 7.5
2014-Apr-16 00:33N 22°30' E 120°07'2 1.5
2014-Apr-15 23:33N 22°29' E 120°06'1 1.0
2014-Apr-15 22:33N 22°27' E 120°06'1 0.7
2014-Apr-15 21:33N 22°27' E 120°06'0 0.1
2014-Apr-15 20:33N 22°27' E 120°06'0 0.4
2014-Apr-15 19:33N 22°27' E 120°06'0 0.4
2014-Apr-15 18:33N 22°28' E 120°05'1 0.6
2014-Apr-15 17:33N 22°28' E 120°05'1 0.5
2014-Apr-15 16:33N 22°29' E 120°05'1 0.5
2014-Apr-15 15:34N 22°29' E 120°05'4 4.4
2014-Apr-15 14:33N 22°30' E 120°09'2 0.9
2014-Apr-15 12:34N 22°29' E 120°11'1 1.5
2014-Apr-15 11:34N 22°28' E 120°10'2 1.6
2014-Apr-15 10:34N 22°27' E 120°09'2 1.5
2014-Apr-15 09:34N 22°26' E 120°08'1 1.3
2014-Apr-15 08:34N 22°25' E 120°07'1 1.3
2014-Apr-15 07:34N 22°24' E 120°06'1 0.8
2014-Apr-15 06:34N 22°23' E 120°06'1 0.6
2014-Apr-15 05:33N 22°23' E 120°05'1 0.4
2014-Apr-15 03:34N 22°23' E 120°04'0 0.3
2014-Apr-15 02:33N 22°23' E 120°04'0 0.4
2014-Apr-15 01:34N 22°23' E 120°04'0 0.5
2014-Apr-15 00:33N 22°23' E 120°03'0 0.4
2014-Apr-14 23:34N 22°22' E 120°03'0 0.2
2014-Apr-14 21:34N 22°22' E 120°04'0 0.5
2014-Apr-14 20:33N 22°23' E 120°04'1 0.8
2014-Apr-14 19:34N 22°23' E 120°04'1 1.4
2014-Apr-14 18:34N 22°25' E 120°05'2 1.6
2014-Apr-14 17:34N 22°26' E 120°05'2 1.5
2014-Apr-14 16:33N 22°28' E 120°05'1 1.2
2014-Apr-14 15:33N 22°29' E 120°05'4 3.5
2014-Apr-14 14:34N 22°29' E 120°02'  

Dump ship's entire track history

sailing weather and tide predictions

Cape Texel — V7RC4 — position and weather